createdAt,value
2022-09-29T00:00:59.293Z,10.80
2022-09-29T00:03:27.259Z,10.70
2022-09-29T00:05:56.624Z,10.70
2022-09-29T00:08:26.125Z,10.70
2022-09-29T00:10:55.296Z,10.60
2022-09-29T00:13:24.083Z,10.60
2022-09-29T00:15:59.238Z,10.60
2022-09-29T00:18:27.259Z,10.60
2022-09-29T00:20:59.326Z,10.50
2022-09-29T00:23:27.709Z,10.50
2022-09-29T00:26:05.101Z,10.50
2022-09-29T00:28:34.073Z,10.50
2022-09-29T00:31:02.998Z,10.40
2022-09-29T00:33:32.201Z,10.40
2022-09-29T00:36:02.273Z,10.40
2022-09-29T00:38:30.843Z,10.30
2022-09-29T00:40:58.881Z,10.30
2022-09-29T00:43:54.465Z,10.30
2022-09-29T00:46:26.864Z,10.30
2022-09-29T00:48:56.910Z,10.20
2022-09-29T00:51:26.502Z,10.20
2022-09-29T00:53:55.046Z,10.20
2022-09-29T00:56:23.034Z,10.10
2022-09-29T00:58:56.354Z,10.10
2022-09-29T01:01:26.539Z,10.10
2022-09-29T01:03:57.844Z,10.10
2022-09-29T01:06:27.243Z,10.00
2022-09-29T01:09:01.443Z,10.00
2022-09-29T01:11:31.025Z,10.00
2022-09-29T01:14:03.752Z,10.00
2022-09-29T01:16:32.408Z,9.90
2022-09-29T01:19:01.858Z,9.90
2022-09-29T01:21:42.910Z,9.90
2022-09-29T01:24:37.038Z,9.90
2022-09-29T01:27:12.927Z,9.80
2022-09-29T01:30:04.459Z,9.80
2022-09-29T01:32:44.161Z,9.80
2022-09-29T01:35:18.628Z,9.80
2022-09-29T01:37:57.945Z,9.80
2022-09-29T01:40:31.603Z,9.80
2022-09-29T01:43:05.409Z,9.70
2022-09-29T01:45:35.694Z,9.70
2022-09-29T01:48:09.084Z,9.70
2022-09-29T01:50:40.904Z,9.70
2022-09-29T01:53:12.657Z,9.70
2022-09-29T01:55:47.621Z,9.70
2022-09-29T01:58:19.992Z,9.70
2022-09-29T02:00:51.704Z,9.60
2022-09-29T02:03:25.103Z,9.60
2022-09-29T02:05:55.934Z,9.60
2022-09-29T02:08:32.563Z,9.50
2022-09-29T02:11:04.961Z,9.60
2022-09-29T02:13:37.112Z,9.60
2022-09-29T02:16:06.341Z,9.50
2022-09-29T02:18:42.188Z,9.50
2022-09-29T02:21:10.619Z,9.50
2022-09-29T02:23:38.400Z,9.50
2022-09-29T02:26:06.729Z,9.50
2022-09-29T02:28:34.805Z,9.50
2022-09-29T02:31:03.242Z,9.50
2022-09-29T02:33:31.156Z,9.50
2022-09-29T02:36:09.483Z,9.50
2022-09-29T02:38:45.183Z,9.50
2022-09-29T02:41:27.032Z,9.50
2022-09-29T02:44:18.010Z,9.50
2022-09-29T02:47:01.157Z,9.50
2022-09-29T02:49:50.571Z,9.60
2022-09-29T02:52:26.827Z,9.60
2022-09-29T02:55:05.126Z,9.60
2022-09-29T02:57:40.388Z,9.60
2022-09-29T03:00:11.351Z,9.60
2022-09-29T03:02:40.461Z,9.60
2022-09-29T03:05:10.981Z,9.60
2022-09-29T03:07:40.869Z,9.60
2022-09-29T03:10:09.854Z,9.60
2022-09-29T03:12:37.985Z,9.60
2022-09-29T03:15:07.401Z,9.60
2022-09-29T03:17:35.198Z,9.60
2022-09-29T03:20:03.674Z,9.60
2022-09-29T03:22:31.531Z,9.60
2022-09-29T03:25:00.728Z,9.60
2022-09-29T03:27:28.565Z,9.50
2022-09-29T03:29:56.613Z,9.50
2022-09-29T03:32:24.456Z,9.50
2022-09-29T03:34:52.566Z,9.50
2022-09-29T03:37:20.380Z,9.50
2022-09-29T03:39:48.203Z,9.50
2022-09-29T03:42:17.383Z,9.50
2022-09-29T03:44:45.213Z,9.40
2022-09-29T03:47:13.026Z,9.40
2022-09-29T03:49:40.873Z,9.40
2022-09-29T03:52:08.684Z,9.40
2022-09-29T03:54:36.485Z,9.40
2022-09-29T03:57:04.462Z,9.40
2022-09-29T03:59:33.779Z,9.30
2022-09-29T04:02:01.653Z,9.30
2022-09-29T04:04:29.534Z,9.30
2022-09-29T04:06:57.388Z,9.30
2022-09-29T04:09:25.250Z,9.30
2022-09-29T04:11:53.051Z,9.30
2022-09-29T04:14:20.887Z,9.30
2022-09-29T04:16:50.067Z,9.30
2022-09-29T04:19:17.911Z,9.30
2022-09-29T04:21:46.103Z,9.20
2022-09-29T04:24:14.120Z,9.30
2022-09-29T04:26:41.978Z,9.20
2022-09-29T04:29:09.777Z,9.20
2022-09-29T04:31:37.796Z,9.20
2022-09-29T04:34:07.098Z,9.20
2022-09-29T04:36:34.934Z,9.20
2022-09-29T04:39:02.815Z,9.20
2022-09-29T04:41:33.449Z,9.10
2022-09-29T04:44:01.262Z,9.10
2022-09-29T04:46:29.536Z,9.10
2022-09-29T04:48:57.325Z,9.10
2022-09-29T04:51:26.471Z,9.10
2022-09-29T04:53:54.316Z,9.10
2022-09-29T04:56:22.146Z,9.00
2022-09-29T04:58:50.029Z,9.00
2022-09-29T05:01:18.264Z,9.00
2022-09-29T05:03:46.071Z,9.00
2022-09-29T05:06:14.186Z,9.00
2022-09-29T05:08:43.339Z,9.00
2022-09-29T05:11:11.819Z,8.90
2022-09-29T05:13:39.822Z,8.90
2022-09-29T05:16:08.012Z,8.90
2022-09-29T05:18:35.935Z,8.90
2022-09-29T05:21:26.545Z,9.00
2022-09-29T05:23:54.157Z,8.90
2022-09-29T05:26:22.024Z,8.90
2022-09-29T05:28:49.949Z,8.90
2022-09-29T05:31:17.962Z,8.90
2022-09-29T05:33:46.124Z,8.90
2022-09-29T05:36:14.282Z,8.90
2022-09-29T05:38:42.159Z,8.90
2022-09-29T05:41:13.311Z,8.90
2022-09-29T05:43:41.675Z,8.90
2022-09-29T05:46:11.631Z,8.90
2022-09-29T05:48:39.498Z,8.90
2022-09-29T05:51:12.138Z,8.90
2022-09-29T05:53:40.578Z,8.90
2022-09-29T05:56:09.330Z,8.90
2022-09-29T05:58:39.690Z,8.90
2022-09-29T06:01:08.961Z,8.90
2022-09-29T06:03:37.683Z,8.90
2022-09-29T06:06:09.695Z,8.90
2022-09-29T06:08:38.314Z,8.90
2022-09-29T06:11:07.710Z,8.90
2022-09-29T06:13:35.753Z,8.90
2022-09-29T06:16:07.909Z,8.90
2022-09-29T06:18:36.202Z,8.90
2022-09-29T06:21:05.431Z,8.90
2022-09-29T06:23:33.574Z,8.90
2022-09-29T06:26:04.371Z,8.90
2022-09-29T06:28:33.326Z,8.90
2022-09-29T06:31:01.726Z,8.90
2022-09-29T06:33:32.016Z,8.90
2022-09-29T06:36:19.105Z,8.90
2022-09-29T06:38:48.858Z,8.90
2022-09-29T06:41:16.674Z,9.00
2022-09-29T06:43:44.580Z,9.00
2022-09-29T06:46:12.856Z,9.00
2022-09-29T06:48:42.065Z,9.00
2022-09-29T06:51:10.768Z,9.00
2022-09-29T06:53:39.809Z,9.00
2022-09-29T06:56:08.942Z,9.00
2022-09-29T06:58:37.031Z,9.00
2022-09-29T07:01:06.039Z,9.00
2022-09-29T07:03:35.160Z,9.10
2022-09-29T07:06:19.313Z,9.10
2022-09-29T07:08:48.022Z,9.00
2022-09-29T07:11:16.574Z,9.10
2022-09-29T07:13:44.424Z,9.10
2022-09-29T07:16:13.870Z,9.10
2022-09-29T07:18:43.494Z,9.10
2022-09-29T07:21:16.723Z,9.10
2022-09-29T07:23:45.393Z,9.10
2022-09-29T07:26:13.417Z,9.10
2022-09-29T07:28:41.525Z,9.10
2022-09-29T07:31:15.190Z,9.20
2022-09-29T07:33:46.495Z,9.20
2022-09-29T07:36:17.158Z,9.20
2022-09-29T07:38:47.626Z,9.20
2022-09-29T07:41:15.976Z,9.20
2022-09-29T07:43:43.780Z,9.20
2022-09-29T07:46:11.775Z,9.30
2022-09-29T07:48:40.304Z,9.30
2022-09-29T07:51:11.065Z,9.30
2022-09-29T07:53:40.566Z,9.30
2022-09-29T07:56:10.108Z,9.30
2022-09-29T07:58:38.808Z,9.40
2022-09-29T08:01:10.426Z,9.40
2022-09-29T08:03:38.894Z,9.40
2022-09-29T08:06:07.255Z,9.50
2022-09-29T08:08:36.182Z,9.50
2022-09-29T08:11:06.899Z,9.50
2022-09-29T08:13:36.305Z,9.60
2022-09-29T08:16:05.806Z,9.60
2022-09-29T08:18:34.741Z,9.70
2022-09-29T08:21:03.894Z,9.70
2022-09-29T08:23:32.724Z,9.70
2022-09-29T08:26:02.572Z,9.80
2022-09-29T08:28:32.857Z,9.90
2022-09-29T08:31:04.488Z,9.90
2022-09-29T08:33:33.196Z,9.90
2022-09-29T08:36:03.566Z,10.00
2022-09-29T08:38:32.723Z,10.00
2022-09-29T08:41:05.481Z,10.10
2022-09-29T08:43:38.489Z,10.10
2022-09-29T08:46:13.958Z,10.20
2022-09-29T08:48:55.218Z,10.30
2022-09-29T08:51:41.127Z,10.30
2022-09-29T08:54:32.675Z,10.40
2022-09-29T08:57:03.291Z,10.50
2022-09-29T08:59:33.192Z,10.50
2022-09-29T09:02:23.324Z,10.60
2022-09-29T09:05:17.332Z,10.60
2022-09-29T09:07:54.938Z,10.70
2022-09-29T09:10:32.775Z,10.60
2022-09-29T09:13:22.185Z,10.70
2022-09-29T09:16:03.290Z,10.70
2022-09-29T09:18:44.174Z,10.80
2022-09-29T09:21:18.823Z,10.80
2022-09-29T09:23:58.308Z,10.90
2022-09-29T09:26:36.124Z,11.00
2022-09-29T09:29:07.005Z,11.00
2022-09-29T09:31:43.862Z,11.00
2022-09-29T09:34:17.573Z,11.10
2022-09-29T09:37:01.748Z,11.10
2022-09-29T09:39:36.833Z,11.10
2022-09-29T09:42:14.920Z,11.20
2022-09-29T09:44:48.121Z,11.30
2022-09-29T09:47:26.960Z,11.30
2022-09-29T09:49:58.221Z,11.30
2022-09-29T09:52:28.239Z,11.30
2022-09-29T09:54:59.077Z,11.40
2022-09-29T09:57:53.837Z,11.50
2022-09-29T10:00:24.719Z,11.50
2022-09-29T10:02:56.787Z,11.60
2022-09-29T10:05:27.738Z,11.60
2022-09-29T10:07:56.975Z,11.60
2022-09-29T10:10:27.524Z,11.70
2022-09-29T10:13:00.155Z,11.70
2022-09-29T10:15:34.079Z,11.80
2022-09-29T10:18:07.661Z,11.80
2022-09-29T10:20:38.242Z,11.80
2022-09-29T10:23:30.425Z,11.90
2022-09-29T10:26:15.073Z,11.90
2022-09-29T10:28:46.573Z,11.90
2022-09-29T10:31:26.778Z,12.00
2022-09-29T10:33:58.950Z,12.00
2022-09-29T10:36:30.447Z,12.00
2022-09-29T10:39:00.897Z,12.00
2022-09-29T10:41:31.427Z,12.10
2022-09-29T10:44:21.753Z,12.10
2022-09-29T10:46:53.898Z,12.20
2022-09-29T10:49:24.157Z,12.20
2022-09-29T10:52:02.912Z,12.30
2022-09-29T10:54:34.551Z,12.30
2022-09-29T10:57:13.359Z,12.40
2022-09-29T10:59:48.471Z,12.40
2022-09-29T11:02:27.735Z,12.50
2022-09-29T11:05:00.462Z,12.50
2022-09-29T11:07:29.160Z,12.50
2022-09-29T11:09:56.941Z,12.60
2022-09-29T11:12:34.342Z,12.60
2022-09-29T11:15:02.871Z,12.60
2022-09-29T11:17:32.308Z,12.70
2022-09-29T11:20:03.919Z,12.70
2022-09-29T11:23:06.303Z,12.70
2022-09-29T11:25:52.446Z,12.80
2022-09-29T11:28:44.275Z,12.80
2022-09-29T11:31:36.750Z,12.90
2022-09-29T11:34:21.872Z,12.90
2022-09-29T11:36:56.907Z,12.90
2022-09-29T11:39:36.338Z,13.00
2022-09-29T11:42:19.839Z,13.00
2022-09-29T11:44:59.151Z,13.00
2022-09-29T11:47:54.883Z,13.10
2022-09-29T11:50:37.664Z,13.10
2022-09-29T11:53:32.421Z,13.10
2022-09-29T11:56:14.754Z,13.20
2022-09-29T11:58:54.123Z,13.30
2022-09-29T12:01:40.691Z,13.30
2022-09-29T12:04:22.458Z,13.30
2022-09-29T12:06:58.544Z,13.30
2022-09-29T12:09:53.873Z,13.40
2022-09-29T12:12:27.286Z,13.40
2022-09-29T12:15:10.681Z,13.50
2022-09-29T12:17:43.392Z,13.50
2022-09-29T12:20:20.531Z,13.50
2022-09-29T12:22:50.917Z,13.50
2022-09-29T12:25:24.904Z,13.50
2022-09-29T12:27:56.481Z,13.60
2022-09-29T12:30:29.940Z,13.60
2022-09-29T12:33:04.194Z,13.70
2022-09-29T12:35:39.803Z,13.70
2022-09-29T12:38:17.331Z,13.70
2022-09-29T12:40:52.600Z,13.70
2022-09-29T12:43:28.290Z,13.80
2022-09-29T12:46:00.962Z,13.80
2022-09-29T12:48:49.972Z,13.90
2022-09-29T12:51:26.460Z,13.90
2022-09-29T12:54:04.645Z,13.90
2022-09-29T12:56:39.204Z,13.90
2022-09-29T12:59:14.816Z,13.90
2022-09-29T13:01:42.937Z,14.00
2022-09-29T13:04:27.389Z,14.00
2022-09-29T13:07:16.719Z,14.00
2022-09-29T13:10:23.420Z,14.10
2022-09-29T13:13:27.927Z,14.10
2022-09-29T13:16:04.406Z,14.10
2022-09-29T13:19:14.665Z,14.20
2022-09-29T13:22:04.464Z,14.20
2022-09-29T13:24:47.601Z,14.20
2022-09-29T13:27:29.466Z,14.20
2022-09-29T13:30:04.119Z,14.20
2022-09-29T13:32:34.195Z,14.20
2022-09-29T13:35:03.337Z,14.20
2022-09-29T13:37:43.491Z,14.30
2022-09-29T13:40:20.483Z,14.30
2022-09-29T13:42:49.056Z,14.30
2022-09-29T13:45:41.195Z,14.40
2022-09-29T13:48:49.827Z,14.40
2022-09-29T13:51:46.295Z,14.40
2022-09-29T13:54:43.552Z,14.40
2022-09-29T13:57:29.670Z,14.50
2022-09-29T14:00:21.574Z,14.40
2022-09-29T14:03:05.614Z,14.50
2022-09-29T14:06:40.705Z,14.50
2022-09-29T14:09:07.080Z,14.50
2022-09-29T14:11:37.322Z,14.50
2022-09-29T14:14:07.751Z,14.50
2022-09-29T14:16:45.665Z,14.50
2022-09-29T14:19:41.976Z,14.50
2022-09-29T14:22:43.314Z,14.50
2022-09-29T14:25:30.938Z,14.60
2022-09-29T14:28:06.610Z,14.60
2022-09-29T14:30:44.236Z,14.60
2022-09-29T14:33:17.213Z,14.60
2022-09-29T14:35:56.018Z,14.60
2022-09-29T14:38:27.031Z,14.70
2022-09-29T14:40:59.262Z,14.70
2022-09-29T14:43:38.332Z,14.70
2022-09-29T14:46:55.265Z,14.70
2022-09-29T14:50:02.428Z,14.70
2022-09-29T14:52:42.516Z,14.70
2022-09-29T14:55:16.206Z,14.80
2022-09-29T14:58:04.023Z,14.80
2022-09-29T15:00:44.609Z,14.80
2022-09-29T15:03:27.436Z,14.80
2022-09-29T15:06:12.934Z,14.80
2022-09-29T15:08:41.618Z,14.80
2022-09-29T15:11:33.815Z,14.90
2022-09-29T15:14:01.631Z,14.90
2022-09-29T15:16:39.250Z,14.80
2022-09-29T15:19:24.597Z,14.90
2022-09-29T15:22:05.833Z,14.90
2022-09-29T15:24:51.401Z,14.90
2022-09-29T15:47:25.226Z,14.90
2022-09-29T15:50:34.012Z,14.80
2022-09-29T15:57:04.438Z,14.80
2022-09-29T15:59:52.246Z,14.80
2022-09-29T16:03:07.679Z,14.80
2022-09-29T16:05:47.393Z,14.80
2022-09-29T16:08:25.094Z,14.80
2022-09-29T17:14:51.851Z,14.20
2022-09-29T17:25:08.461Z,14.10
2022-09-29T17:27:56.904Z,14.10
2022-09-29T17:30:34.651Z,14.10
2022-09-29T17:33:29.457Z,14.00
2022-09-29T17:39:56.443Z,14.00
2022-09-29T17:43:14.321Z,13.90
2022-09-29T17:46:29.388Z,13.80
2022-09-29T17:49:24.573Z,13.80
2022-09-29T17:55:31.106Z,13.70
2022-09-29T17:58:00.195Z,13.60
2022-09-29T18:00:29.882Z,13.50
2022-09-29T18:03:03.675Z,13.50
2022-09-29T18:05:33.429Z,13.40
2022-09-29T18:08:12.194Z,13.40
2022-09-29T18:11:15.600Z,13.40
2022-09-29T18:13:48.475Z,13.40
2022-09-29T18:16:58.736Z,13.30
2022-09-29T18:20:06.499Z,13.30
2022-09-29T18:22:38.131Z,13.20
2022-09-29T18:25:57.969Z,13.20
2022-09-29T18:28:30.607Z,13.20
2022-09-29T18:31:12.751Z,13.10
2022-09-29T18:33:47.530Z,13.10
2022-09-29T18:36:22.922Z,13.10
2022-09-29T18:38:56.643Z,13.10
2022-09-29T18:41:27.374Z,13.10
2022-09-29T18:44:05.145Z,13.10
2022-09-29T18:46:35.644Z,13.10
2022-09-29T18:49:09.507Z,13.00
2022-09-29T18:51:41.942Z,13.00
2022-09-29T18:54:14.570Z,13.00
2022-09-29T18:57:05.352Z,13.00
2022-09-29T18:59:36.192Z,13.00
2022-09-29T19:02:04.535Z,13.00
2022-09-29T19:04:57.511Z,13.00
2022-09-29T19:07:26.915Z,13.00
2022-09-29T19:09:56.304Z,13.00
2022-09-29T19:12:29.927Z,13.00
2022-09-29T19:14:59.216Z,13.00
2022-09-29T19:17:32.284Z,13.00
2022-09-29T19:20:25.612Z,13.00
2022-09-29T19:22:58.625Z,13.00
2022-09-29T19:25:29.260Z,12.90
2022-09-29T19:28:14.205Z,12.90
2022-09-29T19:31:04.680Z,12.90
2022-09-29T19:33:35.321Z,12.90
2022-09-29T19:36:08.752Z,12.90
2022-09-29T19:38:42.221Z,12.90
2022-09-29T19:41:16.004Z,12.90
2022-09-29T19:43:46.978Z,12.90
2022-09-29T19:46:16.434Z,12.90
2022-09-29T19:48:49.432Z,12.90
2022-09-29T19:51:35.708Z,12.80
2022-09-29T19:54:14.614Z,12.80
2022-09-29T19:56:48.421Z,12.80
2022-09-29T20:00:10.448Z,12.80
2022-09-29T20:06:06.225Z,12.80
2022-09-29T20:08:37.818Z,12.80
2022-09-29T20:11:11.686Z,12.70
2022-09-29T20:13:41.848Z,12.70
2022-09-29T20:16:09.804Z,12.70
2022-09-29T20:18:39.588Z,12.70
2022-09-29T20:21:11.014Z,12.70
2022-09-29T20:24:23.962Z,12.70
2022-09-29T20:27:00.755Z,12.70
2022-09-29T20:29:29.362Z,12.70
2022-09-29T20:31:57.311Z,12.70
2022-09-29T20:34:28.147Z,12.60
2022-09-29T20:37:01.371Z,12.60
2022-09-29T20:43:12.113Z,12.70
2022-09-29T20:45:43.298Z,12.60
2022-09-29T20:48:17.030Z,12.60
2022-09-29T20:50:45.532Z,12.60
2022-09-29T20:53:16.341Z,12.60
2022-09-29T20:55:46.276Z,12.50
2022-09-29T20:58:50.586Z,12.50
2022-09-29T21:01:28.582Z,12.50
2022-09-29T21:04:00.064Z,12.50
2022-09-29T21:06:32.549Z,12.50
2022-09-29T21:09:06.242Z,12.50
2022-09-29T21:11:40.027Z,12.50
2022-09-29T21:14:19.524Z,12.50
2022-09-29T21:16:51.469Z,12.50
2022-09-29T21:19:33.979Z,12.40
2022-09-29T21:22:01.935Z,12.40
2022-09-29T21:24:38.319Z,12.40
2022-09-29T21:27:11.553Z,12.40
2022-09-29T21:29:44.789Z,12.30
2022-09-29T21:32:13.055Z,12.40
2022-09-29T21:34:45.041Z,12.40
2022-09-29T21:37:17.165Z,12.40
2022-09-29T21:39:45.297Z,12.30
2022-09-29T21:42:24.830Z,12.30
2022-09-29T21:44:57.907Z,12.30
2022-09-29T21:47:43.111Z,12.30
2022-09-29T21:50:11.184Z,12.30
2022-09-29T21:52:48.652Z,12.30
2022-09-29T21:55:23.532Z,12.20
2022-09-29T21:57:55.231Z,12.20
2022-09-29T22:00:25.554Z,12.30
2022-09-29T22:03:00.093Z,12.20
2022-09-29T22:05:37.074Z,12.20
2022-09-29T22:08:08.802Z,12.20
2022-09-29T22:10:52.043Z,12.20
2022-09-29T22:13:41.242Z,12.10
2022-09-29T22:17:01.964Z,12.10
2022-09-29T22:23:29.319Z,12.10
2022-09-29T22:25:57.554Z,12.10
2022-09-29T22:28:28.442Z,12.10
2022-09-29T22:30:57.136Z,12.10
2022-09-29T22:33:27.937Z,12.00
2022-09-29T22:36:05.373Z,12.10
2022-09-29T22:38:34.495Z,12.00
2022-09-29T22:41:03.927Z,12.00
2022-09-29T22:43:36.763Z,12.00
2022-09-29T22:46:10.511Z,12.00
2022-09-29T22:48:39.628Z,11.90
2022-09-29T22:51:16.567Z,11.90
2022-09-29T22:53:47.452Z,11.90
2022-09-29T22:56:29.154Z,11.90
2022-09-29T22:59:00.811Z,11.90
2022-09-29T23:01:33.189Z,11.90
2022-09-29T23:04:01.674Z,11.90
2022-09-29T23:06:30.925Z,11.80
2022-09-29T23:09:07.699Z,11.80
2022-09-29T23:11:39.727Z,11.80
2022-09-29T23:14:14.969Z,11.80
2022-09-29T23:16:45.645Z,11.80
2022-09-29T23:19:27.570Z,11.80
2022-09-29T23:22:02.300Z,11.70
2022-09-29T23:24:35.755Z,11.70
2022-09-29T23:27:05.163Z,11.70
2022-09-29T23:29:38.929Z,11.70
2022-09-29T23:32:08.363Z,11.70
2022-09-29T23:34:40.814Z,11.70
2022-09-29T23:37:21.036Z,11.60
2022-09-29T23:39:59.960Z,11.60
2022-09-29T23:42:27.838Z,11.60
2022-09-29T23:45:00.353Z,11.60
2022-09-29T23:51:09.824Z,11.60
2022-09-29T23:53:48.107Z,11.60
2022-09-29T23:56:19.060Z,11.50
